createdAt,value
2019-05-19T00:02:20.423Z,8.25
2019-05-19T00:06:22.462Z,8.25
2019-05-19T00:10:24.692Z,8.23
2019-05-19T00:14:26.726Z,8.22
2019-05-19T00:18:28.830Z,8.17
2019-05-19T00:22:30.976Z,8.12
2019-05-19T00:26:33.103Z,8.05
2019-05-19T00:30:35.235Z,8.01
2019-05-19T00:34:37.633Z,7.91
2019-05-19T00:38:40.714Z,7.80
2019-05-19T00:42:42.941Z,7.73
2019-05-19T00:46:45.364Z,7.64
2019-05-19T00:50:47.515Z,7.61
2019-05-19T00:54:50.042Z,7.65
2019-05-19T00:58:52.766Z,7.62
2019-05-19T01:02:54.966Z,7.71
2019-05-19T01:06:57.041Z,7.84
2019-05-19T01:11:02.696Z,7.93
2019-05-19T01:15:05.176Z,8.06
2019-05-19T01:19:07.426Z,8.15
2019-05-19T01:23:10.959Z,8.20
2019-05-19T01:27:13.096Z,8.25
2019-05-19T01:31:15.232Z,8.42
2019-05-19T01:35:17.722Z,8.62
2019-05-19T01:39:20.075Z,8.77
2019-05-19T01:43:22.452Z,8.95
2019-05-19T01:47:24.789Z,9.04
2019-05-19T01:51:26.993Z,9.25
2019-05-19T01:55:30.897Z,9.35
2019-05-19T01:59:33.275Z,9.47
2019-05-19T02:03:35.438Z,9.56
2019-05-19T02:07:37.578Z,9.66
2019-05-19T02:11:39.733Z,9.68
2019-05-19T02:15:41.805Z,9.73
2019-05-19T02:19:44.643Z,9.87
2019-05-19T02:23:46.891Z,9.98
2019-05-19T02:27:49.217Z,10.09
2019-05-19T02:31:51.401Z,10.20
2019-05-19T02:35:53.474Z,10.30
2019-05-19T02:39:55.626Z,10.40
2019-05-19T02:43:59.655Z,10.45
2019-05-19T02:48:03.786Z,10.47
2019-05-19T02:52:06.364Z,10.58
2019-05-19T02:56:10.973Z,10.64
2019-05-19T03:00:13.890Z,10.61
2019-05-19T03:04:16.409Z,10.65
2019-05-19T03:08:18.583Z,10.71
2019-05-19T03:12:20.540Z,10.74
2019-05-19T03:16:23.685Z,10.85
2019-05-19T03:20:25.778Z,11.00
2019-05-19T03:24:28.062Z,11.06
2019-05-19T03:28:30.129Z,11.17
2019-05-19T03:32:39.943Z,11.32
2019-05-19T03:36:42.414Z,11.42
2019-05-19T03:40:44.519Z,11.56
2019-05-19T03:44:47.581Z,11.67
2019-05-19T03:48:49.685Z,11.78
2019-05-19T03:52:51.752Z,11.98
2019-05-19T03:56:55.088Z,12.20
2019-05-19T04:00:58.202Z,12.40
2019-05-19T04:05:00.280Z,12.55
2019-05-19T04:09:05.829Z,12.72
2019-05-19T04:13:07.974Z,12.89
2019-05-19T04:17:10.018Z,13.08
2019-05-19T04:21:12.154Z,13.21
2019-05-19T04:25:14.600Z,13.23
2019-05-19T04:29:16.635Z,13.35
2019-05-19T04:33:18.761Z,13.59
2019-05-19T04:37:23.963Z,13.81
2019-05-19T04:41:26.126Z,13.87
2019-05-19T04:45:28.447Z,14.00
2019-05-19T04:49:30.465Z,14.19
2019-05-19T04:53:32.578Z,14.49
2019-05-19T04:57:36.503Z,15.02
2019-05-19T05:01:43.100Z,15.23
2019-05-19T05:05:48.436Z,15.40
2019-05-19T05:09:53.788Z,15.64
2019-05-19T05:13:55.917Z,15.65
2019-05-19T05:17:58.023Z,15.76
2019-05-19T05:22:00.279Z,15.95
2019-05-19T05:26:02.463Z,16.24
2019-05-19T05:30:04.771Z,16.66
2019-05-19T05:34:08.671Z,16.81
2019-05-19T05:38:10.802Z,16.79
2019-05-19T05:42:12.821Z,16.91
2019-05-19T05:46:14.876Z,17.00
2019-05-19T05:50:17.292Z,17.06
2019-05-19T05:54:19.287Z,17.24
2019-05-19T05:58:21.674Z,17.53
2019-05-19T06:02:23.901Z,17.80
2019-05-19T06:06:26.240Z,17.95
2019-05-19T06:10:29.490Z,18.00
2019-05-19T06:14:31.472Z,18.02
2019-05-19T06:18:33.432Z,18.13
2019-05-19T06:22:35.670Z,18.37
2019-05-19T06:26:37.796Z,18.70
2019-05-19T06:30:39.900Z,19.10
2019-05-19T06:34:41.962Z,19.32
2019-05-19T06:38:44.180Z,19.74
2019-05-19T06:42:46.298Z,20.31
2019-05-19T06:46:48.300Z,20.72
2019-05-19T06:50:50.466Z,21.03
2019-05-19T06:54:52.646Z,21.49
2019-05-19T06:58:54.814Z,21.60
2019-05-19T07:02:56.938Z,22.00
2019-05-19T07:06:59.179Z,22.16
2019-05-19T07:11:01.416Z,22.24
2019-05-19T07:15:03.460Z,22.43
2019-05-19T07:19:06.171Z,22.44
2019-05-19T07:23:08.190Z,22.47
2019-05-19T07:27:11.326Z,22.86
2019-05-19T07:31:15.183Z,23.38
2019-05-19T07:35:17.344Z,23.52
2019-05-19T07:39:19.326Z,23.41
2019-05-19T07:43:21.415Z,23.57
2019-05-19T07:47:23.501Z,23.42
2019-05-19T07:51:26.970Z,23.48
2019-05-19T07:55:28.998Z,23.75
2019-05-19T07:59:31.107Z,23.71
2019-05-19T08:03:34.811Z,23.63
2019-05-19T08:07:37.020Z,23.94
2019-05-19T08:11:39.256Z,24.38
2019-05-19T08:15:41.356Z,25.08
2019-05-19T08:19:43.499Z,25.08
2019-05-19T08:23:59.179Z,25.25
2019-05-19T08:28:07.262Z,25.04
2019-05-19T08:32:02.788Z,24.96
2019-05-19T08:36:05.068Z,24.73
2019-05-19T08:40:07.955Z,24.42
2019-05-19T08:44:10.203Z,24.66
2019-05-19T08:48:12.261Z,24.97
2019-05-19T08:52:15.279Z,25.22
2019-05-19T08:56:17.499Z,25.32
2019-05-19T09:00:20.225Z,25.57
2019-05-19T09:04:22.472Z,25.72
2019-05-19T09:08:24.672Z,25.67
2019-05-19T09:12:26.817Z,25.71
2019-05-19T09:16:28.971Z,25.49
2019-05-19T09:20:31.202Z,25.40
2019-05-19T09:24:33.321Z,25.56
2019-05-19T09:28:36.483Z,25.64
2019-05-19T09:32:38.711Z,25.85
2019-05-19T09:36:40.936Z,26.12
2019-05-19T09:40:43.060Z,25.76
2019-05-19T09:44:45.094Z,26.11
2019-05-19T09:48:48.852Z,26.33
2019-05-19T09:52:51.115Z,26.22
2019-05-19T09:56:53.256Z,26.16
2019-05-19T10:00:55.531Z,25.81
2019-05-19T10:04:57.879Z,25.76
2019-05-19T10:09:10.465Z,25.57
2019-05-19T10:13:12.465Z,25.35
2019-05-19T10:17:14.521Z,25.48
2019-05-19T10:21:16.819Z,25.58
2019-05-19T10:25:22.195Z,25.74
2019-05-19T10:29:22.917Z,25.81
2019-05-19T10:33:25.025Z,25.89
2019-05-19T10:37:27.085Z,25.64
2019-05-19T10:41:29.201Z,25.46
2019-05-19T10:45:31.431Z,25.67
2019-05-19T10:49:33.603Z,25.84
2019-05-19T10:53:35.626Z,26.01
2019-05-19T10:57:37.792Z,26.05
2019-05-19T11:01:39.863Z,25.91
2019-05-19T11:05:41.987Z,25.67
2019-05-19T11:09:44.106Z,25.57
2019-05-19T11:13:46.019Z,25.47
2019-05-19T11:17:48.157Z,25.37
2019-05-19T11:21:50.275Z,25.26
2019-05-19T11:25:52.442Z,25.36
2019-05-19T11:29:54.463Z,25.68
2019-05-19T11:33:56.621Z,25.70
2019-05-19T11:37:58.604Z,25.89
2019-05-19T11:42:00.684Z,25.91
2019-05-19T11:46:03.062Z,25.93
2019-05-19T11:50:05.196Z,25.90
2019-05-19T11:54:07.315Z,26.08
2019-05-19T11:58:09.586Z,25.87
2019-05-19T12:02:11.880Z,25.36
2019-05-19T12:06:14.924Z,25.46
2019-05-19T12:10:17.245Z,25.50
2019-05-19T12:14:19.687Z,25.65
2019-05-19T12:18:21.831Z,25.74
2019-05-19T12:22:24.889Z,25.84
2019-05-19T12:26:27.121Z,25.94
2019-05-19T12:30:29.248Z,25.77
2019-05-19T12:34:31.852Z,25.75
2019-05-19T12:38:33.761Z,25.73
2019-05-19T12:42:35.901Z,25.83
2019-05-19T12:46:38.112Z,25.97
2019-05-19T12:50:41.646Z,26.12
2019-05-19T12:54:43.712Z,25.88
2019-05-19T12:58:46.930Z,26.02
2019-05-19T13:02:48.809Z,25.93
2019-05-19T13:06:50.729Z,25.61
2019-05-19T13:10:52.965Z,25.75
2019-05-19T13:14:55.236Z,26.13
2019-05-19T13:18:59.044Z,26.00
2019-05-19T13:23:01.631Z,25.93
2019-05-19T13:27:04.309Z,25.99
2019-05-19T13:31:06.925Z,26.03
2019-05-19T13:35:09.041Z,25.74
2019-05-19T13:39:11.605Z,25.44
2019-05-19T13:43:13.745Z,25.59
2019-05-19T13:47:16.556Z,25.90
2019-05-19T13:51:18.733Z,26.21
2019-05-19T13:55:21.078Z,26.08
2019-05-19T13:59:23.184Z,25.77
2019-05-19T14:03:25.668Z,25.56
2019-05-19T14:07:28.073Z,25.73
2019-05-19T14:11:30.497Z,26.08
2019-05-19T14:15:32.456Z,26.49
2019-05-19T14:19:35.778Z,26.49
2019-05-19T14:23:39.650Z,26.25
2019-05-19T14:27:44.691Z,26.18
2019-05-19T14:31:47.060Z,25.82
2019-05-19T14:35:49.197Z,26.07
2019-05-19T14:39:55.363Z,26.75
2019-05-19T14:43:57.418Z,28.41
2019-05-19T14:48:01.125Z,29.36
2019-05-19T14:52:03.013Z,29.32
2019-05-19T14:56:04.779Z,29.82
2019-05-19T15:00:08.378Z,29.95
2019-05-19T15:04:10.226Z,29.52
2019-05-19T15:08:12.062Z,29.55
2019-05-19T15:12:13.837Z,29.01
2019-05-19T15:16:15.856Z,29.40
2019-05-19T15:20:18.051Z,29.42
2019-05-19T15:24:19.867Z,29.57
2019-05-19T15:28:22.210Z,29.77
2019-05-19T15:32:24.026Z,29.01
2019-05-19T15:36:25.807Z,28.74
2019-05-19T15:40:27.648Z,28.99
2019-05-19T15:44:29.419Z,29.22
2019-05-19T15:48:31.207Z,28.30
2019-05-19T15:52:32.994Z,26.84
2019-05-19T15:56:34.817Z,25.09
2019-05-19T16:00:36.576Z,24.19
2019-05-19T16:04:38.693Z,23.69
2019-05-19T16:08:40.480Z,23.33
2019-05-19T16:12:42.282Z,23.16
2019-05-19T16:16:44.365Z,22.76
2019-05-19T16:20:46.795Z,22.76
2019-05-19T16:24:48.640Z,22.61
2019-05-19T16:28:50.845Z,22.38
2019-05-19T16:32:52.974Z,22.18
2019-05-19T16:36:55.085Z,21.98
2019-05-19T16:40:57.235Z,21.92
2019-05-19T16:44:59.237Z,21.80
2019-05-19T16:49:01.290Z,21.68
2019-05-19T16:53:03.539Z,21.55
2019-05-19T16:57:07.183Z,21.46
2019-05-19T17:01:09.395Z,21.33
2019-05-19T17:05:11.601Z,21.21
2019-05-19T17:09:13.440Z,21.10
2019-05-19T17:13:15.693Z,20.94
2019-05-19T17:17:18.597Z,20.82
2019-05-19T17:21:20.928Z,20.72
2019-05-19T17:25:24.100Z,20.60
2019-05-19T17:29:26.451Z,20.46
2019-05-19T17:33:28.251Z,20.32
2019-05-19T17:37:30.322Z,20.24
2019-05-19T17:41:32.110Z,20.13
2019-05-19T17:45:33.880Z,20.00
2019-05-19T17:49:35.764Z,19.87
2019-05-19T17:53:37.857Z,19.71
2019-05-19T17:57:40.282Z,19.55
2019-05-19T18:01:42.183Z,19.35
2019-05-19T18:05:44.437Z,19.23
2019-05-19T18:09:46.240Z,19.21
2019-05-19T18:13:48.021Z,19.13
2019-05-19T18:17:49.783Z,18.98
2019-05-19T18:21:51.648Z,18.85
2019-05-19T18:25:53.414Z,18.69
2019-05-19T18:29:55.242Z,18.64
2019-05-19T18:33:57.042Z,18.56
2019-05-19T18:37:58.906Z,18.44
2019-05-19T18:42:00.842Z,18.26
2019-05-19T18:46:02.644Z,18.17
2019-05-19T18:50:04.562Z,18.01
2019-05-19T18:54:06.481Z,17.87
2019-05-19T18:58:08.218Z,17.78
2019-05-19T19:02:10.949Z,17.68
2019-05-19T19:06:12.880Z,17.68
2019-05-19T19:10:14.805Z,17.62
2019-05-19T19:14:17.064Z,17.48
2019-05-19T19:18:19.314Z,17.35
2019-05-19T19:22:21.060Z,17.35
2019-05-19T19:26:23.088Z,17.23
2019-05-19T19:30:26.662Z,17.15
2019-05-19T19:34:28.743Z,17.04
2019-05-19T19:38:30.483Z,17.02
2019-05-19T19:42:34.006Z,16.89
2019-05-19T19:46:35.756Z,16.91
2019-05-19T19:50:37.560Z,16.96
2019-05-19T19:54:39.319Z,16.88
2019-05-19T19:58:41.101Z,16.83
2019-05-19T20:02:42.838Z,16.73
2019-05-19T20:06:44.791Z,16.65
2019-05-19T20:10:46.599Z,16.62
2019-05-19T20:14:48.736Z,16.61
2019-05-19T20:18:50.654Z,16.65
2019-05-19T20:22:52.449Z,16.58
2019-05-19T20:26:54.494Z,16.58
2019-05-19T20:30:56.584Z,16.58
2019-05-19T20:34:58.450Z,16.58
2019-05-19T20:39:00.325Z,16.55
2019-05-19T20:43:04.342Z,16.53
2019-05-19T20:47:06.509Z,16.51
2019-05-19T20:51:08.485Z,16.44
2019-05-19T20:55:10.508Z,16.36
2019-05-19T20:59:12.251Z,16.30
2019-05-19T21:03:14.062Z,16.32
2019-05-19T21:07:15.818Z,16.27
2019-05-19T21:11:17.638Z,16.23
2019-05-19T21:15:19.403Z,16.23
2019-05-19T21:19:21.211Z,16.20
2019-05-19T21:23:23.009Z,16.13
2019-05-19T21:27:24.879Z,16.18
2019-05-19T21:31:26.615Z,16.08
2019-05-19T21:35:28.476Z,16.00
2019-05-19T21:39:30.312Z,15.95
2019-05-19T21:43:32.078Z,15.66
2019-05-19T21:47:33.854Z,15.52
2019-05-19T21:51:35.651Z,15.36
2019-05-19T21:55:37.387Z,15.26
2019-05-19T21:59:39.564Z,15.07
2019-05-19T22:03:41.391Z,15.03
2019-05-19T22:08:02.072Z,15.21
2019-05-19T22:12:04.278Z,15.12
2019-05-19T22:16:13.120Z,14.84
2019-05-19T22:20:10.822Z,14.79
2019-05-19T22:24:14.216Z,14.71
2019-05-19T22:28:15.966Z,14.75
2019-05-19T22:32:18.089Z,14.72
2019-05-19T22:36:20.305Z,14.76
2019-05-19T22:40:22.083Z,14.83
2019-05-19T22:44:23.844Z,14.84
2019-05-19T22:48:25.782Z,14.78
2019-05-19T22:52:27.537Z,14.71
2019-05-19T22:56:29.351Z,14.75
2019-05-19T23:00:31.259Z,14.70
2019-05-19T23:04:33.259Z,14.63
2019-05-19T23:08:35.120Z,14.56
2019-05-19T23:12:36.895Z,14.57
2019-05-19T23:16:38.647Z,14.52
2019-05-19T23:20:40.472Z,14.39
2019-05-19T23:24:42.207Z,14.33
2019-05-19T23:28:43.986Z,14.30
2019-05-19T23:32:45.719Z,14.31
2019-05-19T23:36:47.967Z,14.40
2019-05-19T23:40:49.726Z,14.42
2019-05-19T23:44:51.588Z,14.42
2019-05-19T23:48:53.312Z,14.32
2019-05-19T23:52:55.126Z,14.15
2019-05-19T23:56:56.870Z,14.04
